createdAt,value
2022-10-25T00:01:26.174Z,1.48
2022-10-25T00:03:53.851Z,1.17
2022-10-25T00:06:21.003Z,0.98
2022-10-25T00:08:48.131Z,1.10
2022-10-25T00:11:25.681Z,1.20
2022-10-25T00:13:53.627Z,1.38
2022-10-25T00:16:22.680Z,1.48
2022-10-25T00:18:50.161Z,1.25
2022-10-25T00:21:17.263Z,1.45
2022-10-25T00:23:44.400Z,1.30
2022-10-25T00:26:12.007Z,1.35
2022-10-25T00:28:39.300Z,1.40
2022-10-25T00:31:07.919Z,1.05
2022-10-25T00:33:35.486Z,1.27
2022-10-25T00:36:09.165Z,1.40
2022-10-25T00:38:36.507Z,1.23
2022-10-25T00:41:04.030Z,1.13
2022-10-25T00:43:39.989Z,1.50
2022-10-25T00:46:25.204Z,1.00
2022-10-25T00:48:55.367Z,1.20
2022-10-25T00:51:24.919Z,1.10
2022-10-25T00:53:52.432Z,1.40
2022-10-25T00:56:38.842Z,1.45
2022-10-25T00:59:08.780Z,1.10
2022-10-25T01:01:36.255Z,1.02
2022-10-25T01:04:05.268Z,0.93
2022-10-25T01:06:34.187Z,1.00
2022-10-25T01:09:02.547Z,0.98
2022-10-25T01:11:29.698Z,1.20
2022-10-25T01:13:57.323Z,0.80
2022-10-25T01:16:32.316Z,0.90
2022-10-25T01:21:45.080Z,0.90
2022-10-25T01:24:30.879Z,0.73
2022-10-25T01:27:12.510Z,1.27
2022-10-25T01:29:51.849Z,1.10
2022-10-25T01:32:21.351Z,1.10
2022-10-25T01:34:56.888Z,1.38
2022-10-25T01:37:23.963Z,0.98
2022-10-25T01:39:57.158Z,0.80
2022-10-25T01:42:30.221Z,0.90
2022-10-25T01:45:09.243Z,1.05
2022-10-25T01:47:38.830Z,0.95
2022-10-25T01:50:08.293Z,0.80
2022-10-25T01:52:35.630Z,0.90
2022-10-25T01:55:03.320Z,1.00
2022-10-25T01:57:42.345Z,0.90
2022-10-25T02:00:09.606Z,0.70
2022-10-25T02:02:50.098Z,1.05
2022-10-25T02:05:29.538Z,0.82
2022-10-25T02:08:02.375Z,1.10
2022-10-25T02:10:35.377Z,1.00
2022-10-25T02:13:05.444Z,1.05
2022-10-25T02:15:39.318Z,0.73
2022-10-25T02:18:08.748Z,0.90
2022-10-25T02:20:36.565Z,0.90
2022-10-25T02:23:04.914Z,0.88
2022-10-25T02:25:36.523Z,0.80
2022-10-25T02:28:07.105Z,0.93
2022-10-25T02:30:35.495Z,0.85
2022-10-25T02:33:02.697Z,0.98
2022-10-25T02:35:29.904Z,0.90
2022-10-25T02:37:56.992Z,0.90
2022-10-25T02:40:24.557Z,1.10
2022-10-25T02:42:51.671Z,0.85
2022-10-25T02:45:18.794Z,1.17
2022-10-25T02:47:46.188Z,0.75
2022-10-25T02:50:13.945Z,0.77
2022-10-25T02:52:41.041Z,0.90
2022-10-25T02:55:08.420Z,1.20
2022-10-25T02:57:36.459Z,0.90
2022-10-25T03:00:04.851Z,0.90
2022-10-25T03:02:32.019Z,0.90
2022-10-25T03:04:59.181Z,0.90
2022-10-25T03:07:26.407Z,1.00
2022-10-25T03:09:53.554Z,0.95
2022-10-25T03:12:20.686Z,1.15
2022-10-25T03:14:47.770Z,0.77
2022-10-25T03:17:14.874Z,0.73
2022-10-25T03:19:41.974Z,1.20
2022-10-25T03:22:09.161Z,0.90
2022-10-25T03:24:36.251Z,0.90
2022-10-25T03:27:03.354Z,1.55
2022-10-25T03:29:30.471Z,0.60
2022-10-25T03:31:57.592Z,0.70
2022-10-25T03:34:24.686Z,0.65
2022-10-25T03:36:52.398Z,0.50
2022-10-25T03:39:19.522Z,1.08
2022-10-25T03:41:46.634Z,0.70
2022-10-25T03:44:13.740Z,0.90
2022-10-25T03:46:40.956Z,0.50
2022-10-25T03:49:08.154Z,0.60
2022-10-25T03:51:35.308Z,0.50
2022-10-25T03:54:02.428Z,1.38
2022-10-25T03:56:29.505Z,0.70
2022-10-25T03:58:56.635Z,0.77
2022-10-25T04:01:23.877Z,0.63
2022-10-25T04:03:51.111Z,1.00
2022-10-25T04:06:18.206Z,0.70
2022-10-25T04:08:45.314Z,1.10
2022-10-25T04:11:12.415Z,1.10
2022-10-25T04:13:39.482Z,0.80
2022-10-25T04:16:07.817Z,0.80
2022-10-25T04:18:34.905Z,0.80
2022-10-25T04:21:02.021Z,0.73
2022-10-25T04:23:29.170Z,0.73
2022-10-25T04:25:57.004Z,0.68
2022-10-25T04:28:24.472Z,0.90
2022-10-25T04:30:51.578Z,0.70
2022-10-25T04:33:18.773Z,0.80
2022-10-25T04:35:52.983Z,1.08
2022-10-25T04:38:20.123Z,0.77
2022-10-25T04:40:53.422Z,0.60
2022-10-25T04:43:20.717Z,0.77
2022-10-25T04:45:47.847Z,0.80
2022-10-25T04:48:14.937Z,0.80
2022-10-25T04:50:42.076Z,0.80
2022-10-25T04:53:09.214Z,0.90
2022-10-25T04:55:36.443Z,0.85
2022-10-25T04:58:03.771Z,0.80
2022-10-25T05:00:30.960Z,0.80
2022-10-25T05:02:58.153Z,0.90
2022-10-25T05:05:25.764Z,0.90
2022-10-25T05:07:52.854Z,0.95
2022-10-25T05:10:20.049Z,0.75
2022-10-25T05:12:47.463Z,0.90
2022-10-25T05:15:14.823Z,0.82
2022-10-25T05:17:41.936Z,0.80
2022-10-25T05:20:09.401Z,1.20
2022-10-25T05:22:36.484Z,0.80
2022-10-25T05:25:03.626Z,0.70
2022-10-25T05:27:30.770Z,1.08
2022-10-25T05:29:57.888Z,0.73
2022-10-25T05:32:25.006Z,0.85
2022-10-25T05:34:52.091Z,2.13
2022-10-25T05:37:19.232Z,0.80
2022-10-25T05:39:46.354Z,1.20
2022-10-25T05:42:13.447Z,1.00
2022-10-25T05:44:40.603Z,1.08
2022-10-25T05:47:07.775Z,1.05
2022-10-25T05:49:39.597Z,0.80
2022-10-25T05:52:07.234Z,1.20
2022-10-25T05:54:34.450Z,1.38
2022-10-25T05:57:01.611Z,1.20
2022-10-25T05:59:28.769Z,1.17
2022-10-25T06:01:56.031Z,1.00
2022-10-25T06:04:23.252Z,0.73
2022-10-25T06:06:52.160Z,0.82
2022-10-25T06:09:19.328Z,1.13
2022-10-25T06:11:46.550Z,1.00
2022-10-25T06:14:13.671Z,0.90
2022-10-25T06:16:40.820Z,1.30
2022-10-25T06:19:08.021Z,0.80
2022-10-25T06:21:35.142Z,1.10
2022-10-25T06:24:02.294Z,0.88
2022-10-25T06:26:29.987Z,1.13
2022-10-25T06:28:58.298Z,1.08
2022-10-25T06:31:25.488Z,0.90
2022-10-25T06:33:52.862Z,1.20
2022-10-25T06:36:21.473Z,1.00
2022-10-25T06:38:48.907Z,0.85
2022-10-25T06:41:17.559Z,1.40
2022-10-25T06:43:45.029Z,1.08
2022-10-25T06:46:15.393Z,0.88
2022-10-25T06:48:42.552Z,1.20
2022-10-25T06:51:09.878Z,1.30
2022-10-25T06:53:37.497Z,0.85
2022-10-25T06:56:06.021Z,0.98
2022-10-25T06:58:35.173Z,0.90
2022-10-25T07:01:13.075Z,1.15
2022-10-25T07:03:40.951Z,1.48
2022-10-25T07:06:12.079Z,1.00
2022-10-25T07:08:40.680Z,1.15
2022-10-25T07:11:08.285Z,1.33
2022-10-25T07:13:35.606Z,1.40
2022-10-25T07:16:06.487Z,1.40
2022-10-25T07:18:34.182Z,1.10
2022-10-25T07:21:02.222Z,1.55
2022-10-25T07:23:29.947Z,1.40
2022-10-25T07:25:57.278Z,1.30
2022-10-25T07:28:24.527Z,1.25
2022-10-25T07:30:51.732Z,1.92
2022-10-25T07:33:20.111Z,1.83
2022-10-25T07:35:59.006Z,1.45
2022-10-25T07:38:35.196Z,0.95
2022-10-25T07:41:02.498Z,1.20
2022-10-25T07:43:30.127Z,1.00
2022-10-25T07:45:57.355Z,1.08
2022-10-25T07:48:24.816Z,1.48
2022-10-25T07:50:52.281Z,1.40
2022-10-25T07:53:19.512Z,1.45
2022-10-25T07:55:53.159Z,1.30
2022-10-25T07:58:20.352Z,1.10
2022-10-25T08:00:47.668Z,0.90
2022-10-25T08:03:15.616Z,0.82
2022-10-25T08:05:46.591Z,1.20
2022-10-25T08:08:14.446Z,1.30
2022-10-25T08:10:45.078Z,1.10
2022-10-25T08:13:12.280Z,1.20
2022-10-25T08:15:40.946Z,1.25
2022-10-25T08:18:09.695Z,1.10
2022-10-25T08:21:00.684Z,1.00
2022-10-25T08:23:25.385Z,1.02
2022-10-25T08:25:52.663Z,0.80
2022-10-25T08:28:19.922Z,1.10
2022-10-25T08:30:47.219Z,0.80
2022-10-25T08:33:14.491Z,0.90
2022-10-25T08:35:41.612Z,1.50
2022-10-25T08:38:08.771Z,0.98
2022-10-25T08:40:39.013Z,0.90
2022-10-25T08:43:13.315Z,1.05
2022-10-25T08:45:43.850Z,0.70
2022-10-25T08:48:16.543Z,0.95
2022-10-25T08:50:46.176Z,0.77
2022-10-25T08:53:18.596Z,1.15
2022-10-25T08:56:11.669Z,0.98
2022-10-25T08:58:36.464Z,0.85
2022-10-25T09:01:09.441Z,0.80
2022-10-25T09:03:37.076Z,1.00
2022-10-25T09:06:07.313Z,1.08
2022-10-25T09:08:49.409Z,0.90
2022-10-25T09:11:35.126Z,0.68
2022-10-25T09:14:11.488Z,0.95
2022-10-25T09:16:41.347Z,1.20
2022-10-25T09:19:12.079Z,1.20
2022-10-25T09:21:39.229Z,1.00
2022-10-25T09:24:12.515Z,1.30
2022-10-25T09:26:41.441Z,0.73
2022-10-25T09:29:14.715Z,1.08
2022-10-25T09:31:43.700Z,1.00
2022-10-25T09:34:11.667Z,1.00
2022-10-25T09:36:41.523Z,0.75
2022-10-25T09:39:15.945Z,0.70
2022-10-25T09:41:46.086Z,0.93
2022-10-25T09:44:31.756Z,1.23
2022-10-25T09:47:03.213Z,0.90
2022-10-25T09:49:34.682Z,0.90
2022-10-25T09:52:22.061Z,1.10
2022-10-25T09:54:54.752Z,0.85
2022-10-25T09:57:21.875Z,1.05
2022-10-25T09:59:51.001Z,0.90
2022-10-25T10:02:24.603Z,0.95
2022-10-25T10:04:52.203Z,0.88
2022-10-25T10:07:19.363Z,1.17
2022-10-25T10:09:46.657Z,0.70
2022-10-25T10:12:34.033Z,1.00
2022-10-25T10:15:04.269Z,0.88
2022-10-25T10:17:31.668Z,1.00
2022-10-25T10:20:16.000Z,1.15
2022-10-25T10:22:47.375Z,1.10
2022-10-25T10:25:18.821Z,0.90
2022-10-25T10:27:47.230Z,1.25
2022-10-25T10:30:23.469Z,0.70
2022-10-25T10:32:57.056Z,0.93
2022-10-25T10:35:34.983Z,0.90
2022-10-25T10:38:14.372Z,1.10
2022-10-25T10:40:41.606Z,0.65
2022-10-25T10:43:29.103Z,1.00
2022-10-25T10:46:00.948Z,0.50
2022-10-25T10:48:32.508Z,0.60
2022-10-25T10:50:59.734Z,0.88
2022-10-25T10:53:32.287Z,0.60
2022-10-25T10:56:02.503Z,0.77
2022-10-25T10:58:32.027Z,1.10
2022-10-25T11:01:01.306Z,0.70
2022-10-25T11:03:59.133Z,0.70
2022-10-25T11:06:29.130Z,0.75
2022-10-25T11:09:20.503Z,0.98
2022-10-25T11:12:16.648Z,0.75
2022-10-25T11:14:43.761Z,0.68
2022-10-25T11:17:17.010Z,1.13
2022-10-25T11:19:44.218Z,0.80
2022-10-25T11:22:32.214Z,0.50
2022-10-25T11:25:20.797Z,0.85
2022-10-25T11:28:17.275Z,0.80
2022-10-25T11:30:58.200Z,0.70
2022-10-25T11:33:25.290Z,0.88
2022-10-25T11:36:09.740Z,0.60
2022-10-25T11:38:47.951Z,0.73
2022-10-25T11:45:02.095Z,0.73
2022-10-25T11:47:43.076Z,0.80
2022-10-25T11:50:16.683Z,1.17
2022-10-25T11:52:57.117Z,0.57
2022-10-25T11:55:24.716Z,0.43
2022-10-25T11:58:05.640Z,1.05
2022-10-25T12:00:44.279Z,0.82
2022-10-25T12:03:26.328Z,0.65
2022-10-25T12:05:59.692Z,0.70
2022-10-25T12:08:31.711Z,0.93
2022-10-25T12:11:03.751Z,0.75
2022-10-25T12:13:38.233Z,0.70
2022-10-25T12:16:10.235Z,0.95
2022-10-25T12:18:42.705Z,0.98
2022-10-25T12:21:11.412Z,0.98
2022-10-25T12:23:46.192Z,0.95
2022-10-25T12:28:45.096Z,0.90
2022-10-25T12:31:15.013Z,1.05
2022-10-25T12:33:43.854Z,0.90
2022-10-25T12:36:14.921Z,0.70
2022-10-25T12:38:42.791Z,1.38
2022-10-25T12:41:16.323Z,0.85
2022-10-25T12:44:18.846Z,1.00
2022-10-25T12:46:55.043Z,1.00
2022-10-25T12:49:23.429Z,0.77
2022-10-25T12:51:50.526Z,0.73
2022-10-25T12:54:32.971Z,0.90
2022-10-25T12:57:14.163Z,0.63
2022-10-25T12:59:57.310Z,0.88
2022-10-25T13:02:46.030Z,1.08
2022-10-25T13:05:28.808Z,0.82
2022-10-25T13:07:57.905Z,0.75
2022-10-25T13:13:06.155Z,0.68
2022-10-25T13:15:46.057Z,0.70
2022-10-25T13:18:31.988Z,0.70
2022-10-25T13:21:00.043Z,0.80
2022-10-25T13:23:50.169Z,0.47
2022-10-25T13:26:18.521Z,0.98
2022-10-25T13:28:45.658Z,0.88
2022-10-25T13:31:31.532Z,1.02
2022-10-25T13:34:14.286Z,1.27
2022-10-25T13:37:00.868Z,0.70
2022-10-25T13:39:34.026Z,0.88
2022-10-25T13:42:23.295Z,0.98
2022-10-25T13:44:56.650Z,0.80
2022-10-25T13:47:36.842Z,0.50
2022-10-25T13:50:13.305Z,0.65
2022-10-25T13:52:44.914Z,0.85
2022-10-25T13:55:15.971Z,0.88
2022-10-25T13:57:52.342Z,0.70
2022-10-25T14:00:22.338Z,0.80
2022-10-25T14:03:08.168Z,0.90
2022-10-25T14:05:54.538Z,1.02
2022-10-25T14:08:40.312Z,1.00
2022-10-25T14:11:16.722Z,0.82
2022-10-25T14:13:55.517Z,0.82
2022-10-25T14:16:27.905Z,1.00
2022-10-25T14:18:56.568Z,0.70
2022-10-25T14:21:25.742Z,0.63
2022-10-25T14:23:53.134Z,1.08
2022-10-25T14:26:21.356Z,0.60
2022-10-25T14:28:49.126Z,0.73
2022-10-25T14:31:18.887Z,1.00
2022-10-25T14:33:50.161Z,0.90
2022-10-25T14:36:23.203Z,0.75
2022-10-25T14:38:50.994Z,0.70
2022-10-25T14:41:23.962Z,0.70
2022-10-25T14:43:51.476Z,0.93
2022-10-25T14:46:20.062Z,0.95
2022-10-25T14:48:48.158Z,1.10
2022-10-25T14:51:41.653Z,0.80
2022-10-25T14:54:25.391Z,0.70
2022-10-25T14:56:58.391Z,0.70
2022-10-25T14:59:28.045Z,0.90
2022-10-25T15:02:29.770Z,1.10
2022-10-25T15:04:58.983Z,1.00
2022-10-25T15:11:10.273Z,1.27
2022-10-25T15:13:40.804Z,1.05
2022-10-25T15:16:37.749Z,1.25
2022-10-25T15:19:14.257Z,1.10
2022-10-25T15:21:43.940Z,0.85
2022-10-25T15:24:14.206Z,1.30
2022-10-25T15:26:52.065Z,0.80
2022-10-25T15:29:38.777Z,0.90
2022-10-25T15:32:05.972Z,1.35
2022-10-25T15:34:33.567Z,0.90
2022-10-25T15:37:00.823Z,1.17
2022-10-25T15:39:28.760Z,0.75
2022-10-25T15:41:56.033Z,1.25
2022-10-25T15:44:23.122Z,0.82
2022-10-25T15:46:56.103Z,0.93
2022-10-25T15:49:23.248Z,0.98
2022-10-25T15:51:50.509Z,1.10
2022-10-25T15:54:19.099Z,0.70
2022-10-25T15:56:46.303Z,1.15
2022-10-25T15:59:13.957Z,1.17
2022-10-25T16:01:42.412Z,2.47
2022-10-25T16:04:16.883Z,2.67
2022-10-25T16:06:44.611Z,2.00
2022-10-25T16:09:11.828Z,1.85
2022-10-25T16:11:43.613Z,1.90
2022-10-25T16:14:18.855Z,2.33
2022-10-25T16:16:46.029Z,1.70
2022-10-25T16:19:17.062Z,1.25
2022-10-25T16:21:44.554Z,1.20
2022-10-25T16:24:12.421Z,1.27
2022-10-25T16:26:42.687Z,1.40
2022-10-25T16:29:24.387Z,2.25
2022-10-25T16:31:52.326Z,2.05
2022-10-25T16:34:19.753Z,1.60
2022-10-25T16:36:47.662Z,1.70
2022-10-25T16:39:14.855Z,2.08
2022-10-25T16:41:43.286Z,1.48
2022-10-25T16:44:11.964Z,1.30
2022-10-25T16:46:39.692Z,1.70
2022-10-25T16:49:09.082Z,1.40
2022-10-25T16:57:32.005Z,1.90
2022-10-25T17:02:46.646Z,1.80
2022-10-25T17:05:47.389Z,2.30
2022-10-25T17:08:21.802Z,2.30
2022-10-25T17:10:51.627Z,2.40
2022-10-25T17:13:23.992Z,2.47
2022-10-25T17:16:02.527Z,1.80
2022-10-25T17:18:36.210Z,2.00
2022-10-25T17:21:12.360Z,1.92
2022-10-25T17:23:42.831Z,2.50
2022-10-25T17:26:13.953Z,1.98
2022-10-25T17:28:44.030Z,2.08
2022-10-25T17:31:12.454Z,2.67
2022-10-25T17:33:40.411Z,1.52
2022-10-25T17:36:16.471Z,1.45
2022-10-25T17:38:54.648Z,2.08
2022-10-25T17:41:22.081Z,1.92
2022-10-25T17:43:54.545Z,2.03
2022-10-25T17:46:25.804Z,2.55
2022-10-25T17:48:56.890Z,2.05
2022-10-25T17:51:24.264Z,2.70
2022-10-25T17:53:54.125Z,2.50
2022-10-25T17:56:22.201Z,2.78
2022-10-25T17:58:49.910Z,3.28
2022-10-25T18:01:20.844Z,2.80
2022-10-25T18:03:48.328Z,2.80
2022-10-25T18:06:16.403Z,3.30
2022-10-25T18:08:44.862Z,4.10
2022-10-25T18:11:12.792Z,10.57
2022-10-25T18:13:43.101Z,3.40
2022-10-25T18:16:10.741Z,3.60
2022-10-25T18:18:38.570Z,3.63
2022-10-25T18:21:06.636Z,3.40
2022-10-25T18:23:34.135Z,3.40
2022-10-25T18:26:01.631Z,3.97
2022-10-25T18:28:29.048Z,4.47
2022-10-25T18:31:14.669Z,4.25
2022-10-25T18:33:43.120Z,4.50
2022-10-25T18:36:15.859Z,4.22
2022-10-25T18:38:43.030Z,18.98
2022-10-25T18:41:11.525Z,10.48
2022-10-25T18:43:38.662Z,4.00
2022-10-25T18:46:05.903Z,4.30
2022-10-25T18:48:33.131Z,4.35
2022-10-25T18:51:04.400Z,4.55
2022-10-25T18:53:32.042Z,5.38
2022-10-25T18:55:59.222Z,4.75
2022-10-25T18:58:26.339Z,5.00
2022-10-25T19:00:53.547Z,6.22
2022-10-25T19:03:20.706Z,5.88
2022-10-25T19:05:52.347Z,7.20
2022-10-25T19:08:19.485Z,7.20
2022-10-25T19:10:47.522Z,6.80
2022-10-25T19:13:19.276Z,6.32
2022-10-25T19:15:46.942Z,6.95
2022-10-25T19:18:14.521Z,7.00
2022-10-25T19:20:45.555Z,6.70
2022-10-25T19:23:13.675Z,6.47
2022-10-25T19:25:40.889Z,6.35
2022-10-25T19:28:08.287Z,6.05
2022-10-25T19:30:39.274Z,6.50
2022-10-25T19:33:06.608Z,6.30
2022-10-25T19:35:34.245Z,6.05
2022-10-25T19:38:01.461Z,5.57
2022-10-25T19:40:28.599Z,5.72
2022-10-25T19:42:55.884Z,5.78
2022-10-25T19:45:23.663Z,5.93
2022-10-25T19:47:52.607Z,6.53
2022-10-25T19:50:22.241Z,5.82
2022-10-25T19:52:49.457Z,6.78
2022-10-25T19:55:16.894Z,5.93
2022-10-25T19:57:43.988Z,6.07
2022-10-25T20:00:13.530Z,6.28
2022-10-25T20:02:40.895Z,5.47
2022-10-25T20:05:08.381Z,5.30
2022-10-25T20:07:35.936Z,5.57
2022-10-25T20:10:03.052Z,5.45
2022-10-25T20:12:30.499Z,4.85
2022-10-25T20:14:58.421Z,5.85
2022-10-25T20:17:25.699Z,5.30
2022-10-25T20:19:52.839Z,5.07
2022-10-25T20:22:19.934Z,5.35
2022-10-25T20:24:47.038Z,5.57
2022-10-25T20:27:14.161Z,5.57
2022-10-25T20:29:41.570Z,5.22
2022-10-25T20:32:08.753Z,5.22
2022-10-25T20:34:37.418Z,5.40
2022-10-25T20:37:05.057Z,5.35
2022-10-25T20:39:32.213Z,5.10
2022-10-25T20:41:59.336Z,4.53
2022-10-25T20:44:26.422Z,4.97
2022-10-25T20:46:53.536Z,5.05
2022-10-25T20:49:20.614Z,4.88
2022-10-25T20:51:48.895Z,4.78
2022-10-25T20:54:16.079Z,5.38
2022-10-25T20:56:43.215Z,5.28
2022-10-25T20:59:10.351Z,5.75
2022-10-25T21:01:37.608Z,5.20
2022-10-25T21:04:04.950Z,5.40
2022-10-25T21:06:32.084Z,5.63
2022-10-25T21:08:59.156Z,5.00
2022-10-25T21:11:29.096Z,4.80
2022-10-25T21:13:56.254Z,5.32
2022-10-25T21:16:23.480Z,4.72
2022-10-25T21:18:50.562Z,4.88
2022-10-25T21:21:18.615Z,5.65
2022-10-25T21:23:48.931Z,5.18
2022-10-25T21:26:16.143Z,4.45
2022-10-25T21:28:43.313Z,5.05
2022-10-25T21:31:11.622Z,4.85
2022-10-25T21:33:39.285Z,4.75
2022-10-25T21:36:09.183Z,4.75
2022-10-25T21:38:36.326Z,4.88
2022-10-25T21:41:07.447Z,5.18
2022-10-25T21:43:34.637Z,4.68
2022-10-25T21:46:04.536Z,4.70
2022-10-25T21:48:31.644Z,5.05
2022-10-25T21:50:58.936Z,4.88
2022-10-25T21:53:26.395Z,4.70
2022-10-25T21:56:03.307Z,4.88
2022-10-25T21:58:30.396Z,4.57
2022-10-25T22:00:57.519Z,4.57
2022-10-25T22:03:26.963Z,4.10
2022-10-25T22:05:54.832Z,3.90
2022-10-25T22:08:21.940Z,4.30
2022-10-25T22:10:56.167Z,5.18
2022-10-25T22:13:23.347Z,4.30
2022-10-25T22:16:04.762Z,4.72
2022-10-25T22:18:32.142Z,4.38
2022-10-25T22:21:00.593Z,4.30
2022-10-25T22:23:28.417Z,4.88
2022-10-25T22:25:55.848Z,4.68
2022-10-25T22:28:22.983Z,4.95
2022-10-25T22:30:50.103Z,4.93
2022-10-25T22:33:17.201Z,4.43
2022-10-25T22:35:44.406Z,3.95
2022-10-25T22:38:11.550Z,4.53
2022-10-25T22:40:38.758Z,3.90
2022-10-25T22:43:05.922Z,4.20
2022-10-25T22:45:34.878Z,4.55
2022-10-25T22:48:02.058Z,4.28
2022-10-25T22:50:29.139Z,4.60
2022-10-25T22:52:56.242Z,4.47
2022-10-25T22:55:23.377Z,4.25
2022-10-25T22:57:50.692Z,3.88
2022-10-25T23:00:18.098Z,3.45
2022-10-25T23:02:45.350Z,3.28
2022-10-25T23:05:12.570Z,3.13
2022-10-25T23:07:39.658Z,3.10
2022-10-25T23:10:06.939Z,3.10
2022-10-25T23:12:34.040Z,2.38
2022-10-25T23:15:01.150Z,3.20
2022-10-25T23:17:28.358Z,2.80
2022-10-25T23:19:55.455Z,3.00
2022-10-25T23:22:22.562Z,3.25
2022-10-25T23:24:49.650Z,2.85
2022-10-25T23:27:16.799Z,2.80
2022-10-25T23:29:43.919Z,2.72
2022-10-25T23:32:11.051Z,3.38
2022-10-25T23:34:38.831Z,2.80
2022-10-25T23:37:06.034Z,2.40
2022-10-25T23:39:33.159Z,2.88
2022-10-25T23:42:00.271Z,2.40
2022-10-25T23:44:27.635Z,1.92
2022-10-25T23:46:54.785Z,1.70
2022-10-25T23:49:21.906Z,1.95
2022-10-25T23:51:49.128Z,2.95
2022-10-25T23:54:16.240Z,2.33
2022-10-25T23:56:43.345Z,2.30
2022-10-25T23:59:10.478Z,2.22
